sensor_id;sensor_type;location;lat;lon;timestamp;P1;durP1;ratioP1;P2;durP2;ratioP2
10114;SDS011;5097;43.260;27.812;2023-01-26T00:00:08;13.80;;;8.77;;
10114;SDS011;5097;43.260;27.812;2023-01-26T00:02:54;18.70;;;11.33;;
10114;SDS011;5097;43.260;27.812;2023-01-26T00:05:39;14.63;;;9.77;;
10114;SDS011;5097;43.260;27.812;2023-01-26T00:08:23;15.80;;;10.40;;
10114;SDS011;5097;43.260;27.812;2023-01-26T00:11:07;19.03;;;12.40;;
10114;SDS011;5097;43.260;27.812;2023-01-26T00:13:53;21.03;;;12.23;;
10114;SDS011;5097;43.260;27.812;2023-01-26T00:16:37;17.30;;;10.13;;
10114;SDS011;5097;43.260;27.812;2023-01-26T00:19:23;18.27;;;10.57;;
10114;SDS011;5097;43.260;27.812;2023-01-26T00:22:07;22.70;;;12.20;;
10114;SDS011;5097;43.260;27.812;2023-01-26T00:24:50;21.27;;;12.23;;
10114;SDS011;5097;43.260;27.812;2023-01-26T00:27:34;17.77;;;11.20;;
10114;SDS011;5097;43.260;27.812;2023-01-26T00:30:18;20.53;;;12.33;;
10114;SDS011;5097;43.260;27.812;2023-01-26T00:33:02;20.27;;;9.87;;
10114;SDS011;5097;43.260;27.812;2023-01-26T00:35:53;18.40;;;10.13;;
10114;SDS011;5097;43.260;27.812;2023-01-26T00:38:37;17.10;;;9.27;;
10114;SDS011;5097;43.260;27.812;2023-01-26T00:41:23;17.70;;;10.90;;
10114;SDS011;5097;43.260;27.812;2023-01-26T00:44:24;17.80;;;10.80;;
10114;SDS011;5097;43.260;27.812;2023-01-26T00:47:08;20.33;;;12.17;;
10114;SDS011;5097;43.260;27.812;2023-01-26T00:49:54;18.10;;;11.80;;
10114;SDS011;5097;43.260;27.812;2023-01-26T00:52:39;22.73;;;12.00;;
10114;SDS011;5097;43.260;27.812;2023-01-26T00:55:23;17.07;;;11.20;;
10114;SDS011;5097;43.260;27.812;2023-01-26T00:58:14;12.37;;;7.87;;
10114;SDS011;5097;43.260;27.812;2023-01-26T01:00:58;20.63;;;12.97;;
10114;SDS011;5097;43.260;27.812;2023-01-26T01:03:42;22.70;;;12.13;;
10114;SDS011;5097;43.260;27.812;2023-01-26T01:06:26;18.47;;;11.63;;
10114;SDS011;5097;43.260;27.812;2023-01-26T01:09:11;21.83;;;13.93;;
10114;SDS011;5097;43.260;27.812;2023-01-26T01:11:55;19.63;;;10.43;;
10114;SDS011;5097;43.260;27.812;2023-01-26T01:14:39;20.57;;;11.83;;
10114;SDS011;5097;43.260;27.812;2023-01-26T01:17:22;27.43;;;13.10;;
10114;SDS011;5097;43.260;27.812;2023-01-26T01:20:07;24.97;;;13.77;;
10114;SDS011;5097;43.260;27.812;2023-01-26T01:22:55;24.97;;;12.87;;
10114;SDS011;5097;43.260;27.812;2023-01-26T01:25:42;26.63;;;15.17;;
10114;SDS011;5097;43.260;27.812;2023-01-26T01:28:27;27.80;;;17.10;;
10114;SDS011;5097;43.260;27.812;2023-01-26T01:31:11;22.73;;;14.67;;
10114;SDS011;5097;43.260;27.812;2023-01-26T01:33:57;24.30;;;15.20;;
10114;SDS011;5097;43.260;27.812;2023-01-26T01:36:41;26.57;;;14.77;;
10114;SDS011;5097;43.260;27.812;2023-01-26T01:39:25;27.57;;;14.27;;
10114;SDS011;5097;43.260;27.812;2023-01-26T01:42:11;28.50;;;17.43;;
10114;SDS011;5097;43.260;27.812;2023-01-26T01:48:19;30.73;;;15.77;;
10114;SDS011;5097;43.260;27.812;2023-01-26T01:51:07;27.13;;;14.47;;
10114;SDS011;5097;43.260;27.812;2023-01-26T01:53:59;20.13;;;12.33;;
10114;SDS011;5097;43.260;27.812;2023-01-26T01:56:48;23.30;;;13.37;;
10114;SDS011;5097;43.260;27.812;2023-01-26T01:59:36;21.60;;;11.97;;
10114;SDS011;5097;43.260;27.812;2023-01-26T02:02:20;21.63;;;10.77;;
10114;SDS011;5097;43.260;27.812;2023-01-26T02:05:06;14.90;;;9.47;;
10114;SDS011;5097;43.260;27.812;2023-01-26T02:07:55;20.83;;;12.30;;
10114;SDS011;5097;43.260;27.812;2023-01-26T02:10:39;15.13;;;10.83;;
10114;SDS011;5097;43.260;27.812;2023-01-26T02:13:26;14.23;;;9.27;;
10114;SDS011;5097;43.260;27.812;2023-01-26T02:16:11;14.30;;;9.40;;
10114;SDS011;5097;43.260;27.812;2023-01-26T02:18:56;13.63;;;8.93;;
10114;SDS011;5097;43.260;27.812;2023-01-26T02:21:41;18.27;;;11.03;;
10114;SDS011;5097;43.260;27.812;2023-01-26T02:24:31;21.10;;;12.30;;
10114;SDS011;5097;43.260;27.812;2023-01-26T02:27:20;18.60;;;10.90;;
10114;SDS011;5097;43.260;27.812;2023-01-26T02:30:05;18.97;;;12.07;;
10114;SDS011;5097;43.260;27.812;2023-01-26T02:32:51;31.20;;;15.83;;
10114;SDS011;5097;43.260;27.812;2023-01-26T02:35:35;25.70;;;14.77;;
10114;SDS011;5097;43.260;27.812;2023-01-26T02:38:20;22.13;;;12.33;;
10114;SDS011;5097;43.260;27.812;2023-01-26T02:41:07;29.33;;;15.53;;
10114;SDS011;5097;43.260;27.812;2023-01-26T02:43:54;29.60;;;15.90;;
10114;SDS011;5097;43.260;27.812;2023-01-26T02:46:37;30.27;;;16.63;;
10114;SDS011;5097;43.260;27.812;2023-01-26T02:49:21;37.63;;;19.70;;
10114;SDS011;5097;43.260;27.812;2023-01-26T02:52:24;33.77;;;18.73;;
10114;SDS011;5097;43.260;27.812;2023-01-26T02:55:13;28.07;;;17.33;;
10114;SDS011;5097;43.260;27.812;2023-01-26T02:58:07;31.33;;;18.50;;
10114;SDS011;5097;43.260;27.812;2023-01-26T03:00:53;28.77;;;17.30;;
10114;SDS011;5097;43.260;27.812;2023-01-26T03:03:37;25.37;;;14.10;;
10114;SDS011;5097;43.260;27.812;2023-01-26T03:06:23;25.37;;;16.70;;
10114;SDS011;5097;43.260;27.812;2023-01-26T03:09:07;26.70;;;16.00;;
10114;SDS011;5097;43.260;27.812;2023-01-26T03:11:51;23.80;;;15.43;;
10114;SDS011;5097;43.260;27.812;2023-01-26T03:14:35;30.13;;;17.27;;
10114;SDS011;5097;43.260;27.812;2023-01-26T03:17:20;27.77;;;16.27;;
10114;SDS011;5097;43.260;27.812;2023-01-26T03:20:05;27.07;;;16.23;;
10114;SDS011;5097;43.260;27.812;2023-01-26T03:23:07;28.03;;;16.67;;
10114;SDS011;5097;43.260;27.812;2023-01-26T03:26:17;24.73;;;15.40;;
10114;SDS011;5097;43.260;27.812;2023-01-26T03:29:20;24.30;;;14.60;;
10114;SDS011;5097;43.260;27.812;2023-01-26T03:32:06;25.57;;;15.40;;
10114;SDS011;5097;43.260;27.812;2023-01-26T03:34:51;24.50;;;15.10;;
10114;SDS011;5097;43.260;27.812;2023-01-26T03:37:35;26.07;;;15.33;;
10114;SDS011;5097;43.260;27.812;2023-01-26T03:40:30;26.07;;;15.67;;
10114;SDS011;5097;43.260;27.812;2023-01-26T03:43:31;26.33;;;16.13;;
10114;SDS011;5097;43.260;27.812;2023-01-26T03:46:33;25.70;;;15.37;;
10114;SDS011;5097;43.260;27.812;2023-01-26T03:49:34;25.00;;;15.40;;
10114;SDS011;5097;43.260;27.812;2023-01-26T03:52:37;26.53;;;15.10;;
10114;SDS011;5097;43.260;27.812;2023-01-26T03:55:38;25.20;;;15.60;;
10114;SDS011;5097;43.260;27.812;2023-01-26T03:58:39;24.17;;;15.43;;
10114;SDS011;5097;43.260;27.812;2023-01-26T04:01:24;24.63;;;15.20;;
10114;SDS011;5097;43.260;27.812;2023-01-26T04:04:12;23.70;;;14.10;;
10114;SDS011;5097;43.260;27.812;2023-01-26T04:07:14;19.13;;;13.33;;
10114;SDS011;5097;43.260;27.812;2023-01-26T04:10:18;22.23;;;14.40;;
10114;SDS011;5097;43.260;27.812;2023-01-26T04:13:02;18.30;;;13.63;;
10114;SDS011;5097;43.260;27.812;2023-01-26T04:16:09;20.60;;;14.47;;
10114;SDS011;5097;43.260;27.812;2023-01-26T04:19:10;24.03;;;15.23;;
10114;SDS011;5097;43.260;27.812;2023-01-26T04:22:12;23.50;;;14.90;;
10114;SDS011;5097;43.260;27.812;2023-01-26T04:24:58;23.30;;;15.60;;
10114;SDS011;5097;43.260;27.812;2023-01-26T04:27:45;22.33;;;14.47;;
10114;SDS011;5097;43.260;27.812;2023-01-26T04:30:29;26.40;;;16.50;;
10114;SDS011;5097;43.260;27.812;2023-01-26T04:33:13;25.90;;;15.53;;
10114;SDS011;5097;43.260;27.812;2023-01-26T04:36:01;26.40;;;16.53;;
10114;SDS011;5097;43.260;27.812;2023-01-26T04:38:46;24.90;;;15.93;;
10114;SDS011;5097;43.260;27.812;2023-01-26T04:41:33;30.87;;;18.97;;
10114;SDS011;5097;43.260;27.812;2023-01-26T04:44:24;34.53;;;21.40;;
10114;SDS011;5097;43.260;27.812;2023-01-26T04:47:08;28.90;;;19.53;;
10114;SDS011;5097;43.260;27.812;2023-01-26T04:49:53;32.57;;;18.10;;
10114;SDS011;5097;43.260;27.812;2023-01-26T04:52:38;23.47;;;14.97;;
10114;SDS011;5097;43.260;27.812;2023-01-26T04:55:22;29.37;;;17.60;;
10114;SDS011;5097;43.260;27.812;2023-01-26T04:58:06;22.73;;;15.17;;
10114;SDS011;5097;43.260;27.812;2023-01-26T05:00:52;35.30;;;20.43;;
10114;SDS011;5097;43.260;27.812;2023-01-26T05:03:36;36.10;;;22.57;;
10114;SDS011;5097;43.260;27.812;2023-01-26T05:06:20;34.47;;;19.83;;
10114;SDS011;5097;43.260;27.812;2023-01-26T05:09:05;33.57;;;20.20;;
10114;SDS011;5097;43.260;27.812;2023-01-26T05:11:51;38.97;;;22.73;;
10114;SDS011;5097;43.260;27.812;2023-01-26T05:14:53;39.77;;;24.90;;
10114;SDS011;5097;43.260;27.812;2023-01-26T05:17:59;29.03;;;18.80;;
10114;SDS011;5097;43.260;27.812;2023-01-26T05:21:02;32.47;;;19.20;;
10114;SDS011;5097;43.260;27.812;2023-01-26T05:23:53;27.43;;;16.90;;
10114;SDS011;5097;43.260;27.812;2023-01-26T05:26:52;25.53;;;17.50;;
10114;SDS011;5097;43.260;27.812;2023-01-26T05:29:56;23.87;;;15.87;;
10114;SDS011;5097;43.260;27.812;2023-01-26T05:32:44;26.60;;;16.07;;
10114;SDS011;5097;43.260;27.812;2023-01-26T05:35:30;24.87;;;15.43;;
10114;SDS011;5097;43.260;27.812;2023-01-26T05:38:14;21.50;;;14.47;;
10114;SDS011;5097;43.260;27.812;2023-01-26T05:40:59;19.63;;;12.63;;
10114;SDS011;5097;43.260;27.812;2023-01-26T05:43:49;27.13;;;18.27;;
10114;SDS011;5097;43.260;27.812;2023-01-26T05:46:48;30.03;;;19.27;;
10114;SDS011;5097;43.260;27.812;2023-01-26T05:49:32;24.60;;;17.83;;
10114;SDS011;5097;43.260;27.812;2023-01-26T05:52:18;28.97;;;17.70;;
10114;SDS011;5097;43.260;27.812;2023-01-26T05:55:04;25.50;;;15.40;;
10114;SDS011;5097;43.260;27.812;2023-01-26T05:57:49;37.93;;;19.90;;
10114;SDS011;5097;43.260;27.812;2023-01-26T06:00:33;38.50;;;18.50;;
10114;SDS011;5097;43.260;27.812;2023-01-26T06:03:23;35.93;;;18.50;;
10114;SDS011;5097;43.260;27.812;2023-01-26T06:06:06;37.17;;;17.77;;
10114;SDS011;5097;43.260;27.812;2023-01-26T06:08:58;44.27;;;20.37;;
10114;SDS011;5097;43.260;27.812;2023-01-26T06:11:44;39.07;;;20.17;;
10114;SDS011;5097;43.260;27.812;2023-01-26T06:14:56;28.07;;;18.60;;
10114;SDS011;5097;43.260;27.812;2023-01-26T06:17:50;32.73;;;17.77;;
10114;SDS011;5097;43.260;27.812;2023-01-26T06:20:34;34.07;;;21.63;;
10114;SDS011;5097;43.260;27.812;2023-01-26T06:23:20;34.57;;;23.47;;
10114;SDS011;5097;43.260;27.812;2023-01-26T06:26:05;28.37;;;21.87;;
10114;SDS011;5097;43.260;27.812;2023-01-26T06:28:52;32.63;;;24.20;;
10114;SDS011;5097;43.260;27.812;2023-01-26T06:31:37;25.33;;;19.83;;
10114;SDS011;5097;43.260;27.812;2023-01-26T06:34:26;25.53;;;17.70;;
10114;SDS011;5097;43.260;27.812;2023-01-26T06:37:10;21.67;;;16.80;;
10114;SDS011;5097;43.260;27.812;2023-01-26T06:39:55;23.87;;;16.27;;
10114;SDS011;5097;43.260;27.812;2023-01-26T06:42:41;24.30;;;16.97;;
10114;SDS011;5097;43.260;27.812;2023-01-26T06:45:31;26.53;;;18.63;;
10114;SDS011;5097;43.260;27.812;2023-01-26T06:48:16;21.93;;;16.40;;
10114;SDS011;5097;43.260;27.812;2023-01-26T06:51:02;20.50;;;15.60;;
10114;SDS011;5097;43.260;27.812;2023-01-26T06:54:08;28.93;;;21.97;;
10114;SDS011;5097;43.260;27.812;2023-01-26T06:57:14;36.47;;;29.30;;
10114;SDS011;5097;43.260;27.812;2023-01-26T07:00:20;30.77;;;22.67;;
10114;SDS011;5097;43.260;27.812;2023-01-26T07:03:10;18.73;;;14.47;;
10114;SDS011;5097;43.260;27.812;2023-01-26T07:05:54;30.73;;;21.53;;
10114;SDS011;5097;43.260;27.812;2023-01-26T07:08:38;24.63;;;19.80;;
10114;SDS011;5097;43.260;27.812;2023-01-26T07:11:23;30.23;;;23.27;;
10114;SDS011;5097;43.260;27.812;2023-01-26T07:14:07;32.63;;;25.80;;
10114;SDS011;5097;43.260;27.812;2023-01-26T07:16:52;33.27;;;26.37;;
10114;SDS011;5097;43.260;27.812;2023-01-26T07:19:36;37.30;;;26.37;;
10114;SDS011;5097;43.260;27.812;2023-01-26T07:22:20;28.57;;;22.30;;
10114;SDS011;5097;43.260;27.812;2023-01-26T07:25:04;26.53;;;19.97;;
10114;SDS011;5097;43.260;27.812;2023-01-26T07:27:49;25.13;;;19.77;;
10114;SDS011;5097;43.260;27.812;2023-01-26T07:30:37;23.57;;;15.93;;
10114;SDS011;5097;43.260;27.812;2023-01-26T07:33:23;20.00;;;15.80;;
10114;SDS011;5097;43.260;27.812;2023-01-26T07:36:07;23.43;;;18.40;;
10114;SDS011;5097;43.260;27.812;2023-01-26T07:38:52;22.47;;;18.23;;
10114;SDS011;5097;43.260;27.812;2023-01-26T07:41:36;27.80;;;21.07;;
10114;SDS011;5097;43.260;27.812;2023-01-26T07:44:39;22.90;;;18.70;;
10114;SDS011;5097;43.260;27.812;2023-01-26T07:47:23;25.27;;;18.37;;
10114;SDS011;5097;43.260;27.812;2023-01-26T07:50:09;22.77;;;14.33;;
10114;SDS011;5097;43.260;27.812;2023-01-26T07:52:54;18.47;;;12.13;;
10114;SDS011;5097;43.260;27.812;2023-01-26T07:55:38;34.80;;;21.47;;
10114;SDS011;5097;43.260;27.812;2023-01-26T07:58:22;27.17;;;16.13;;
10114;SDS011;5097;43.260;27.812;2023-01-26T08:01:07;24.27;;;15.00;;
10114;SDS011;5097;43.260;27.812;2023-01-26T08:03:52;17.53;;;11.87;;
10114;SDS011;5097;43.260;27.812;2023-01-26T08:06:37;16.40;;;11.60;;
10114;SDS011;5097;43.260;27.812;2023-01-26T08:09:21;19.90;;;12.73;;
10114;SDS011;5097;43.260;27.812;2023-01-26T08:12:05;19.47;;;12.43;;
10114;SDS011;5097;43.260;27.812;2023-01-26T08:14:49;18.23;;;11.33;;
10114;SDS011;5097;43.260;27.812;2023-01-26T08:17:33;24.97;;;15.47;;
10114;SDS011;5097;43.260;27.812;2023-01-26T08:20:17;20.53;;;13.37;;
10114;SDS011;5097;43.260;27.812;2023-01-26T08:23:03;25.50;;;17.90;;
10114;SDS011;5097;43.260;27.812;2023-01-26T08:25:46;24.47;;;19.60;;
10114;SDS011;5097;43.260;27.812;2023-01-26T08:28:30;32.50;;;23.57;;
10114;SDS011;5097;43.260;27.812;2023-01-26T08:31:15;42.03;;;29.13;;
10114;SDS011;5097;43.260;27.812;2023-01-26T08:34:01;20.97;;;14.57;;
10114;SDS011;5097;43.260;27.812;2023-01-26T08:36:45;19.60;;;14.33;;
10114;SDS011;5097;43.260;27.812;2023-01-26T08:39:30;20.20;;;14.93;;
10114;SDS011;5097;43.260;27.812;2023-01-26T08:42:14;26.70;;;18.67;;
10114;SDS011;5097;43.260;27.812;2023-01-26T08:44:58;23.43;;;19.70;;
10114;SDS011;5097;43.260;27.812;2023-01-26T08:47:47;26.27;;;21.00;;
10114;SDS011;5097;43.260;27.812;2023-01-26T08:50:31;20.50;;;17.47;;
10114;SDS011;5097;43.260;27.812;2023-01-26T08:53:15;23.83;;;18.43;;
10114;SDS011;5097;43.260;27.812;2023-01-26T08:56:01;18.80;;;15.10;;
10114;SDS011;5097;43.260;27.812;2023-01-26T08:58:46;21.17;;;15.47;;
10114;SDS011;5097;43.260;27.812;2023-01-26T09:01:29;19.10;;;16.13;;
10114;SDS011;5097;43.260;27.812;2023-01-26T09:04:13;18.23;;;14.40;;
10114;SDS011;5097;43.260;27.812;2023-01-26T09:06:57;18.43;;;15.27;;
10114;SDS011;5097;43.260;27.812;2023-01-26T09:09:41;13.67;;;11.37;;
10114;SDS011;5097;43.260;27.812;2023-01-26T09:12:27;13.97;;;11.47;;
10114;SDS011;5097;43.260;27.812;2023-01-26T09:15:11;18.93;;;14.27;;
10114;SDS011;5097;43.260;27.812;2023-01-26T09:17:55;29.07;;;20.47;;
10114;SDS011;5097;43.260;27.812;2023-01-26T09:20:42;25.67;;;21.40;;
10114;SDS011;5097;43.260;27.812;2023-01-26T09:23:26;19.90;;;16.63;;
10114;SDS011;5097;43.260;27.812;2023-01-26T09:26:10;26.73;;;19.57;;
10114;SDS011;5097;43.260;27.812;2023-01-26T09:28:56;45.53;;;30.70;;
10114;SDS011;5097;43.260;27.812;2023-01-26T09:31:40;26.67;;;22.00;;
10114;SDS011;5097;43.260;27.812;2023-01-26T09:34:25;23.10;;;19.33;;
10114;SDS011;5097;43.260;27.812;2023-01-26T09:37:09;18.93;;;16.80;;
10114;SDS011;5097;43.260;27.812;2023-01-26T09:39:53;25.27;;;22.03;;
10114;SDS011;5097;43.260;27.812;2023-01-26T09:42:38;31.17;;;23.67;;
10114;SDS011;5097;43.260;27.812;2023-01-26T09:45:40;30.13;;;22.50;;
10114;SDS011;5097;43.260;27.812;2023-01-26T09:48:34;23.90;;;18.87;;
10114;SDS011;5097;43.260;27.812;2023-01-26T09:51:24;16.17;;;13.53;;
10114;SDS011;5097;43.260;27.812;2023-01-26T09:54:17;19.07;;;15.13;;
10114;SDS011;5097;43.260;27.812;2023-01-26T09:57:11;21.43;;;14.87;;
10114;SDS011;5097;43.260;27.812;2023-01-26T09:59:57;22.47;;;15.07;;
10114;SDS011;5097;43.260;27.812;2023-01-26T10:02:54;19.83;;;15.47;;
10114;SDS011;5097;43.260;27.812;2023-01-26T10:05:48;26.10;;;19.00;;
10114;SDS011;5097;43.260;27.812;2023-01-26T10:09:14;48.33;;;36.77;;
10114;SDS011;5097;43.260;27.812;2023-01-26T10:12:05;27.43;;;24.30;;
10114;SDS011;5097;43.260;27.812;2023-01-26T10:14:51;32.43;;;24.63;;
10114;SDS011;5097;43.260;27.812;2023-01-26T10:17:39;23.40;;;18.03;;
10114;SDS011;5097;43.260;27.812;2023-01-26T10:20:29;20.87;;;16.40;;
10114;SDS011;5097;43.260;27.812;2023-01-26T10:23:15;24.63;;;19.53;;
10114;SDS011;5097;43.260;27.812;2023-01-26T10:26:09;31.10;;;23.97;;
10114;SDS011;5097;43.260;27.812;2023-01-26T10:28:55;37.23;;;27.80;;
10114;SDS011;5097;43.260;27.812;2023-01-26T10:31:40;42.40;;;33.10;;
10114;SDS011;5097;43.260;27.812;2023-01-26T10:34:25;49.70;;;34.17;;
10114;SDS011;5097;43.260;27.812;2023-01-26T10:37:14;61.57;;;42.50;;
10114;SDS011;5097;43.260;27.812;2023-01-26T10:40:03;48.10;;;35.17;;
10114;SDS011;5097;43.260;27.812;2023-01-26T10:42:55;50.13;;;37.60;;
10114;SDS011;5097;43.260;27.812;2023-01-26T10:45:43;42.03;;;27.93;;
10114;SDS011;5097;43.260;27.812;2023-01-26T10:48:29;36.50;;;24.83;;
10114;SDS011;5097;43.260;27.812;2023-01-26T10:51:13;53.73;;;36.57;;
10114;SDS011;5097;43.260;27.812;2023-01-26T10:57:12;44.90;;;32.40;;
10114;SDS011;5097;43.260;27.812;2023-01-26T11:00:00;33.57;;;25.77;;
10114;SDS011;5097;43.260;27.812;2023-01-26T11:02:50;111.50;;;62.47;;
10114;SDS011;5097;43.260;27.812;2023-01-26T11:05:35;107.67;;;63.33;;
10114;SDS011;5097;43.260;27.812;2023-01-26T11:08:32;45.20;;;28.97;;
10114;SDS011;5097;43.260;27.812;2023-01-26T11:11:23;33.43;;;26.80;;
10114;SDS011;5097;43.260;27.812;2023-01-26T11:14:09;44.77;;;31.43;;
10114;SDS011;5097;43.260;27.812;2023-01-26T11:16:59;105.00;;;51.37;;
10114;SDS011;5097;43.260;27.812;2023-01-26T11:19:57;29.37;;;18.03;;
10114;SDS011;5097;43.260;27.812;2023-01-26T11:22:50;26.73;;;18.00;;
10114;SDS011;5097;43.260;27.812;2023-01-26T11:25:44;20.97;;;14.93;;
10114;SDS011;5097;43.260;27.812;2023-01-26T11:28:48;31.13;;;22.33;;
10114;SDS011;5097;43.260;27.812;2023-01-26T11:31:44;24.33;;;16.43;;
10114;SDS011;5097;43.260;27.812;2023-01-26T11:34:39;20.77;;;13.97;;
10114;SDS011;5097;43.260;27.812;2023-01-26T11:37:41;23.37;;;15.80;;
10114;SDS011;5097;43.260;27.812;2023-01-26T11:40:29;19.03;;;13.10;;
10114;SDS011;5097;43.260;27.812;2023-01-26T11:43:26;24.87;;;15.43;;
10114;SDS011;5097;43.260;27.812;2023-01-26T11:46:39;22.73;;;16.53;;
10114;SDS011;5097;43.260;27.812;2023-01-26T11:49:40;42.70;;;24.77;;
10114;SDS011;5097;43.260;27.812;2023-01-26T11:52:40;34.50;;;20.40;;
10114;SDS011;5097;43.260;27.812;2023-01-26T11:55:37;22.53;;;15.70;;
10114;SDS011;5097;43.260;27.812;2023-01-26T11:58:34;23.97;;;15.37;;
10114;SDS011;5097;43.260;27.812;2023-01-26T12:01:23;18.70;;;13.60;;
10114;SDS011;5097;43.260;27.812;2023-01-26T12:04:13;24.73;;;16.07;;
10114;SDS011;5097;43.260;27.812;2023-01-26T12:07:02;30.37;;;18.93;;
10114;SDS011;5097;43.260;27.812;2023-01-26T12:09:53;21.37;;;13.87;;
10114;SDS011;5097;43.260;27.812;2023-01-26T12:12:38;26.93;;;17.57;;
10114;SDS011;5097;43.260;27.812;2023-01-26T12:15:30;26.40;;;17.50;;
10114;SDS011;5097;43.260;27.812;2023-01-26T12:18:19;22.47;;;13.60;;
10114;SDS011;5097;43.260;27.812;2023-01-26T12:21:20;21.93;;;14.07;;
10114;SDS011;5097;43.260;27.812;2023-01-26T12:24:05;21.73;;;14.47;;
10114;SDS011;5097;43.260;27.812;2023-01-26T12:27:18;20.37;;;13.83;;
10114;SDS011;5097;43.260;27.812;2023-01-26T12:30:15;20.10;;;13.43;;
10114;SDS011;5097;43.260;27.812;2023-01-26T12:33:09;23.00;;;15.57;;
10114;SDS011;5097;43.260;27.812;2023-01-26T12:35:59;29.27;;;19.50;;
10114;SDS011;5097;43.260;27.812;2023-01-26T12:38:53;16.30;;;13.27;;
10114;SDS011;5097;43.260;27.812;2023-01-26T12:42:01;19.20;;;13.80;;
10114;SDS011;5097;43.260;27.812;2023-01-26T12:44:56;20.13;;;12.43;;
10114;SDS011;5097;43.260;27.812;2023-01-26T12:47:46;30.53;;;22.50;;
10114;SDS011;5097;43.260;27.812;2023-01-26T12:50:36;24.03;;;15.43;;
10114;SDS011;5097;43.260;27.812;2023-01-26T12:53:23;22.50;;;15.37;;
10114;SDS011;5097;43.260;27.812;2023-01-26T12:56:16;24.13;;;14.97;;
10114;SDS011;5097;43.260;27.812;2023-01-26T12:59:10;31.90;;;22.23;;
10114;SDS011;5097;43.260;27.812;2023-01-26T13:02:21;17.63;;;12.97;;
10114;SDS011;5097;43.260;27.812;2023-01-26T13:05:19;25.80;;;17.00;;
10114;SDS011;5097;43.260;27.812;2023-01-26T13:11:43;22.23;;;16.30;;
10114;SDS011;5097;43.260;27.812;2023-01-26T13:14:35;19.17;;;13.07;;
10114;SDS011;5097;43.260;27.812;2023-01-26T13:17:40;31.53;;;19.63;;
10114;SDS011;5097;43.260;27.812;2023-01-26T13:23:37;30.80;;;21.63;;
10114;SDS011;5097;43.260;27.812;2023-01-26T13:29:35;26.83;;;17.43;;
10114;SDS011;5097;43.260;27.812;2023-01-26T13:35:44;35.13;;;21.17;;
10114;SDS011;5097;43.260;27.812;2023-01-26T13:38:31;36.40;;;23.30;;
10114;SDS011;5097;43.260;27.812;2023-01-26T13:41:18;23.97;;;14.50;;
10114;SDS011;5097;43.260;27.812;2023-01-26T13:44:06;21.70;;;12.77;;
10114;SDS011;5097;43.260;27.812;2023-01-26T13:46:57;44.03;;;27.13;;
10114;SDS011;5097;43.260;27.812;2023-01-26T13:49:44;27.43;;;15.23;;
10114;SDS011;5097;43.260;27.812;2023-01-26T13:52:31;39.97;;;26.77;;
10114;SDS011;5097;43.260;27.812;2023-01-26T13:55:19;22.13;;;13.00;;
10114;SDS011;5097;43.260;27.812;2023-01-26T13:58:09;32.67;;;20.40;;
10114;SDS011;5097;43.260;27.812;2023-01-26T14:00:58;21.07;;;12.60;;
10114;SDS011;5097;43.260;27.812;2023-01-26T14:03:44;27.70;;;17.57;;
10114;SDS011;5097;43.260;27.812;2023-01-26T14:06:28;38.23;;;24.97;;
10114;SDS011;5097;43.260;27.812;2023-01-26T14:09:12;22.57;;;16.73;;
10114;SDS011;5097;43.260;27.812;2023-01-26T14:11:58;17.73;;;11.60;;
10114;SDS011;5097;43.260;27.812;2023-01-26T14:14:45;29.07;;;23.27;;
10114;SDS011;5097;43.260;27.812;2023-01-26T14:17:34;18.20;;;12.67;;
10114;SDS011;5097;43.260;27.812;2023-01-26T14:20:23;16.00;;;10.33;;
10114;SDS011;5097;43.260;27.812;2023-01-26T14:23:10;16.93;;;11.00;;
10114;SDS011;5097;43.260;27.812;2023-01-26T14:25:56;21.27;;;13.83;;
10114;SDS011;5097;43.260;27.812;2023-01-26T14:28:43;24.27;;;14.57;;
10114;SDS011;5097;43.260;27.812;2023-01-26T14:31:28;22.30;;;13.57;;
10114;SDS011;5097;43.260;27.812;2023-01-26T14:34:17;18.13;;;13.20;;
10114;SDS011;5097;43.260;27.812;2023-01-26T14:37:04;19.87;;;13.27;;
10114;SDS011;5097;43.260;27.812;2023-01-26T14:43:08;17.20;;;11.27;;
10114;SDS011;5097;43.260;27.812;2023-01-26T14:45:56;16.07;;;10.80;;
10114;SDS011;5097;43.260;27.812;2023-01-26T14:48:43;22.47;;;14.53;;
10114;SDS011;5097;43.260;27.812;2023-01-26T14:51:31;20.37;;;12.67;;
10114;SDS011;5097;43.260;27.812;2023-01-26T14:54:17;34.17;;;22.10;;
10114;SDS011;5097;43.260;27.812;2023-01-26T14:57:07;23.87;;;16.33;;
10114;SDS011;5097;43.260;27.812;2023-01-26T14:59:59;26.63;;;14.17;;
10114;SDS011;5097;43.260;27.812;2023-01-26T15:02:47;16.23;;;10.80;;
10114;SDS011;5097;43.260;27.812;2023-01-26T15:05:32;20.47;;;10.60;;
10114;SDS011;5097;43.260;27.812;2023-01-26T15:08:20;20.17;;;12.40;;
10114;SDS011;5097;43.260;27.812;2023-01-26T15:11:05;24.80;;;13.33;;
10114;SDS011;5097;43.260;27.812;2023-01-26T15:14:17;26.30;;;15.73;;
10114;SDS011;5097;43.260;27.812;2023-01-26T15:17:25;25.77;;;14.73;;
10114;SDS011;5097;43.260;27.812;2023-01-26T15:23:26;17.77;;;10.90;;
10114;SDS011;5097;43.260;27.812;2023-01-26T15:26:13;22.33;;;15.30;;
10114;SDS011;5097;43.260;27.812;2023-01-26T15:29:05;19.90;;;12.10;;
10114;SDS011;5097;43.260;27.812;2023-01-26T15:32:04;17.70;;;10.63;;
10114;SDS011;5097;43.260;27.812;2023-01-26T15:34:48;23.17;;;13.03;;
10114;SDS011;5097;43.260;27.812;2023-01-26T15:37:58;23.07;;;13.83;;
10114;SDS011;5097;43.260;27.812;2023-01-26T15:40:44;27.00;;;16.83;;
10114;SDS011;5097;43.260;27.812;2023-01-26T15:43:28;31.13;;;20.37;;
10114;SDS011;5097;43.260;27.812;2023-01-26T15:46:12;15.13;;;10.07;;
10114;SDS011;5097;43.260;27.812;2023-01-26T15:48:55;45.30;;;27.10;;
10114;SDS011;5097;43.260;27.812;2023-01-26T15:51:39;16.33;;;11.60;;
10114;SDS011;5097;43.260;27.812;2023-01-26T15:54:23;47.27;;;25.53;;
10114;SDS011;5097;43.260;27.812;2023-01-26T15:57:08;32.13;;;20.73;;
10114;SDS011;5097;43.260;27.812;2023-01-26T15:59:53;20.60;;;13.70;;
10114;SDS011;5097;43.260;27.812;2023-01-26T16:02:37;21.13;;;12.57;;
10114;SDS011;5097;43.260;27.812;2023-01-26T16:05:21;17.27;;;9.47;;
10114;SDS011;5097;43.260;27.812;2023-01-26T16:08:06;19.03;;;14.60;;
10114;SDS011;5097;43.260;27.812;2023-01-26T16:10:51;20.77;;;12.67;;
10114;SDS011;5097;43.260;27.812;2023-01-26T16:13:39;39.10;;;22.50;;
10114;SDS011;5097;43.260;27.812;2023-01-26T16:16:32;34.10;;;19.27;;
10114;SDS011;5097;43.260;27.812;2023-01-26T16:19:15;67.73;;;37.57;;
10114;SDS011;5097;43.260;27.812;2023-01-26T16:22:16;37.47;;;22.63;;
10114;SDS011;5097;43.260;27.812;2023-01-26T16:25:00;22.47;;;14.03;;
10114;SDS011;5097;43.260;27.812;2023-01-26T16:27:43;23.70;;;13.97;;
10114;SDS011;5097;43.260;27.812;2023-01-26T16:30:29;19.43;;;13.37;;
10114;SDS011;5097;43.260;27.812;2023-01-26T16:33:13;40.37;;;24.67;;
10114;SDS011;5097;43.260;27.812;2023-01-26T16:36:01;27.23;;;19.40;;
10114;SDS011;5097;43.260;27.812;2023-01-26T16:38:45;25.97;;;15.90;;
10114;SDS011;5097;43.260;27.812;2023-01-26T16:41:30;21.90;;;14.90;;
10114;SDS011;5097;43.260;27.812;2023-01-26T16:44:15;14.50;;;10.13;;
10114;SDS011;5097;43.260;27.812;2023-01-26T16:47:02;13.43;;;9.90;;
10114;SDS011;5097;43.260;27.812;2023-01-26T16:49:47;25.03;;;17.60;;
10114;SDS011;5097;43.260;27.812;2023-01-26T16:52:30;18.80;;;10.23;;